»·PEaware :: APA8244 NZAA-YMHB

APA8244 :: NZAA-YMHB

FLIGHT INFORMATION

Flight Status: Arrived
Operator: Unknown
More flights by this operator :: More flights under this callsign
Pilot: Stacy K. (11621)
Aircraft: BOEING 737-800
(B738)
More flights by this aircraft type
Origin: NZAA Auckland Intl
New Zealand
Destination: YMHB Hobart
Australia
More flights between these airports :: More routes between these airports
Route: LENG2P VELMO L513 TASUM W519 CLARK CLARK3
File this flight plan on PilotEdge
Remarks: PBN / A1B1C1D1S1S2 DOF / 180526 REG / ZKFQY EET / YBBB0136 YMMM0256 SEL / DEFK OPR / APA PER / C RALT / NZCH YMHB RMK / TCAS SIMBRIEF
Altitude:
(Current/Filed)
38,000ft
Speed:
(Current/Filed)
454kts
Departed: 26-May-18 03:49 PM
Arrived: 26-May-18 05:03 PM
Distance/Time
Traveled:
1297nm/1:14
Distance/Time
To Go:
Arrived

Flight Plot

Page will automatically refresh every two minutes.

Flight plan parsing failed; only flown route is shown


Map Options




Map Legend


Flown Route
Filed Route
Departure Airport
Arrival Airport
Navaid (VOR, NDB)
Fix

Horizontal Profiles

Position Reports

Time Latitude Longitude Heading Altitude Ground
Speed
26-May-18 15:48 -41.827260 155.733591 256 38329ft 417kts
26-May-18 15:49 -41.851552 155.581816 257 38333ft 416kts
26-May-18 15:50 -41.875751 155.429666 257 38335ft 418kts
26-May-18 15:51 -41.900274 155.277406 257 38338ft 419kts
26-May-18 15:52 -41.924370 155.124359 257 38338ft 419kts
26-May-18 15:53 -41.948074 154.970572 257 38339ft 421kts
26-May-18 15:54 -41.972156 154.816481 257 38341ft 421kts
26-May-18 15:55 -41.995877 154.661843 258 38342ft 422kts
26-May-18 15:56 -42.019191 154.507024 258 38343ft 422kts
26-May-18 15:57 -42.042179 154.352486 258 38345ft 422kts
26-May-18 15:58 -42.065523 154.197115 258 38346ft 424kts
26-May-18 15:59 -42.088586 154.041915 259 38347ft 424kts
26-May-18 16:00 -42.111190 153.886190 259 38348ft 424kts
26-May-18 16:01 -42.133443 153.730132 259 38349ft 423kts
26-May-18 16:02 -42.155542 153.574075 259 38350ft 423kts
26-May-18 16:03 -42.177685 153.417981 259 38343ft 424kts
26-May-18 16:04 -42.199958 153.262176 259 38344ft 425kts
26-May-18 16:05 -42.221614 153.105427 260 38347ft 425kts
26-May-18 16:06 -42.242842 152.948115 260 38348ft 426kts
26-May-18 16:07 -42.264113 152.790623 260 38349ft 426kts
26-May-18 16:08 -42.285747 152.632621 260 38350ft 428kts
26-May-18 16:09 -42.306698 152.474395 260 38352ft 428kts
26-May-18 16:10 -42.327202 152.315803 261 38353ft 429kts
26-May-18 16:11 -42.347663 152.157038 261 38354ft 429kts
26-May-18 16:12 -42.368311 151.998060 260 38354ft 429kts
26-May-18 16:13 -42.388811 151.839099 261 38355ft 429kts
26-May-18 16:14 -42.408671 151.679813 261 38358ft 429kts
26-May-18 16:15 -42.428434 151.520635 261 38358ft 428kts
26-May-18 16:16 -42.447647 151.361579 261 38358ft 428kts
26-May-18 16:17 -42.466719 151.202144 261 38358ft 429kts
26-May-18 16:18 -42.486123 151.042889 261 38359ft 429kts
26-May-18 16:19 -42.505014 150.882929 262 38359ft 429kts
26-May-18 16:20 -42.523405 150.722285 262 38360ft 430kts
26-May-18 16:21 -42.541901 150.562138 262 38360ft 430kts
26-May-18 16:22 -42.560471 150.401762 262 38359ft 431kts
26-May-18 16:23 -42.578240 150.241726 262 38359ft 431kts
26-May-18 16:24 -42.595794 150.080485 263 38359ft 430kts
26-May-18 16:25 -42.613303 149.920308 263 38359ft 431kts
26-May-18 16:26 -42.630897 149.759410 263 38361ft 431kts
26-May-18 16:27 -42.647784 149.598255 263 38360ft 431kts
26-May-18 16:28 -42.664521 149.437119 264 38360ft 430kts
26-May-18 16:29 -42.659201 149.276144 277 38360ft 428kts
26-May-18 16:30 -42.657852 149.114571 269 38359ft 430kts
26-May-18 16:31 -42.664468 148.958884 268 38358ft 430kts
26-May-18 16:32 -42.672021 148.796473 268 38357ft 430kts
26-May-18 16:33 -42.679763 148.634361 269 38356ft 430kts
26-May-18 16:34 -42.686853 148.471927 269 38357ft 430kts
26-May-18 16:35 -42.693621 148.309256 269 37869ft 432kts
26-May-18 16:36 -42.699173 148.173863 269 36367ft 431kts
26-May-18 16:37 -42.705821 148.010668 269 34570ft 433kts
26-May-18 16:38 -42.712616 147.846592 269 32773ft 432kts
26-May-18 16:39 -42.718967 147.685968 269 30972ft 419kts
26-May-18 16:40 -42.724557 147.531751 269 29191ft 407kts
26-May-18 16:41 -42.721121 147.381374 294 27373ft 390kts
26-May-18 16:42 -42.644582 147.249788 314 25299ft 375kts
26-May-18 16:43 -42.573052 147.149656 315 23497ft 363kts
26-May-18 16:44 -42.514549 147.069170 315 21997ft 356kts
26-May-18 16:45 -42.440316 146.986427 347 20168ft 345kts
26-May-18 16:46 -42.369980 147.056498 77 18372ft 362kts
26-May-18 16:47 -42.423290 147.163577 150 16602ft 369kts
26-May-18 16:48 -42.512002 147.223379 153 14800ft 328kts
26-May-18 16:49 -42.590396 147.275169 153 12992ft 307kts
26-May-18 16:50 -42.666470 147.324971 154 11187ft 299kts
26-May-18 16:51 -42.723308 147.397679 109 9395ft 285kts
26-May-18 16:52 -42.739688 147.501341 95 7772ft 275kts
26-May-18 16:53 -42.748521 147.602628 93 6397ft 272kts
26-May-18 16:54 -42.762614 147.697793 119 5107ft 242kts
26-May-18 16:55 -42.816237 147.747658 157 4105ft 235kts
26-May-18 16:56 -42.878071 147.777549 161 3999ft 234kts
26-May-18 16:57 -42.938520 147.776100 215 3999ft 216kts
26-May-18 16:58 -42.965350 147.712510 275 3996ft 184kts
26-May-18 16:59 -42.940324 147.654847 314 3440ft 175kts
26-May-18 17:00 -42.908581 147.609855 317 2455ft 156kts
26-May-18 17:01 -42.878618 147.568982 316 1456ft 150kts
26-May-18 17:02 -42.849426 147.529494 316 213ft 139kts
26-May-18 17:03 -42.835100 147.510380 315 22ft 19kts
26-May-18 17:04 -42.833537 147.506331 223 22ft 11kts
26-May-18 17:05 -42.836040 147.507890 134 22ft 13kts
26-May-18 17:06 -42.838694 147.508690 140 22ft 11kts
26-May-18 17:07 -42.840897 147.508183 220 22ft 7kts
26-May-18 17:08 -42.840741 147.507339 313 22ft 0kts
26-May-18 17:09 -42.840734 147.507328 313 22ft 0kts
26-May-18 17:10 -42.840734 147.507328 313 22ft 0kts
26-May-18 17:11 -42.840734 147.507328 313 22ft 0kts
26-May-18 17:12 -42.840734 147.507328 313 22ft 0kts
26-May-18 17:13 -42.840734 147.507328 313 22ft 0kts
26-May-18 17:14 -42.840734 147.507328 313 22ft 0kts
26-May-18 17:15 -42.840734 147.507328 313 22ft 0kts
26-May-18 17:16 -42.840734 147.507328 313 22ft 0kts
26-May-18 17:17 -42.840734 147.507328 313 22ft 0kts

Navigation Log

Ident Type
Flight plan parsing failed, navigation log unavailable